Terminal Aerodrome Forecast
Issued by NWS

Home | Current Version | Previous Version | Text Only | Print | Product List | Glossary On
Versions: 1 2 3 4 5 6 7 8 9 10 11 12 13
850
FTUS46 KSGX 272320
TAFONT
TAF
KONT 272320Z 2800/2906 24011KT P6SM SCT150 BKN200
     FM280400 25007KT P6SM SCT250
     FM281500 03010G18KT P6SM SCT250
     FM282200 36010KT P6SM SCT250
     FM290500 04012G22KT P6SM SCT250=

USA.gov is the U.S. government's official web portal to all federal, state and local government web resources and services.